Time;durP1;ratioP1;P1;durP2;ratioP2;P2;SDS_P1;SDS_P2;PMS_P1;PMS_P2;Temp;Humidity;BMP_temperature;BMP_pressure;BME280_temperature;BME280_humidity;BME280_pressure;Samples;Min_cycle;Max_cycle;Signal;HPM_P1;HPM_P2
2024/03/15 00:01:13;;;;;;;12.73;8.20;;;;;;;11.21;79.82;100301.47;4971885;28;20054;-84
2024/03/15 00:03:39;;;;;;;9.18;7.13;;;;;;;11.16;80.39;100309.81;4969126;28;20051;-84
2024/03/15 00:06:06;;;;;;;11.35;7.40;;;;;;;11.11;80.57;100304.97;4986305;28;20043;-81
2024/03/15 00:08:33;;;;;;;12.15;7.95;;;;;;;11.08;80.74;100299.97;4971849;28;20077;-83
2024/03/15 00:11:00;;;;;;;9.05;7.03;;;;;;;11.03;80.62;100291.63;5005836;22;20058;-77
2024/03/15 00:13:27;;;;;;;10.93;6.97;;;;;;;11.00;80.87;100297.22;4987222;28;20069;-78
2024/03/15 00:15:53;;;;;;;11.20;7.30;;;;;;;10.93;81.07;100300.56;5007931;28;20137;-78
2024/03/15 00:18:20;;;;;;;9.75;7.38;;;;;;;10.86;81.68;100300.34;5009028;28;20111;-80
2024/03/15 00:20:48;;;;;;;12.40;8.13;;;;;;;10.74;82.37;100291.72;4994732;28;20084;-79
2024/03/15 00:23:14;;;;;;;9.57;8.02;;;;;;;10.73;82.65;100297.16;4977607;28;20537;-79
2024/03/15 00:25:42;;;;;;;9.45;7.63;;;;;;;10.70;82.68;100295.63;4976929;28;20115;-79
2024/03/15 00:28:08;;;;;;;13.43;8.15;;;;;;;10.77;82.74;100302.03;4985946;28;20049;-79
2024/03/15 00:30:35;;;;;;;11.60;8.70;;;;;;;10.80;82.77;100301.72;4982774;28;20149;-79
2024/03/15 00:33:02;;;;;;;11.63;8.30;;;;;;;10.74;83.40;100302.31;4986400;28;20113;-78
2024/03/15 00:35:29;;;;;;;12.95;8.48;;;;;;;10.87;82.41;100296.72;4983587;28;20050;-79
2024/03/15 00:37:55;;;;;;;10.30;8.10;;;;;;;10.88;82.33;100301.84;4993350;28;20137;-79
2024/03/15 00:40:22;;;;;;;9.82;8.40;;;;;;;10.94;82.35;100308.41;4973848;28;20089;-79
2024/03/15 00:42:49;;;;;;;11.13;8.45;;;;;;;10.93;82.47;100295.28;4966211;28;20046;-79
2024/03/15 00:45:16;;;;;;;11.38;8.40;;;;;;;10.93;82.15;100301.41;4985925;28;20046;-80
2024/03/15 00:47:43;;;;;;;13.10;8.18;;;;;;;10.92;82.34;100291.81;4980598;28;20093;-79
2024/03/15 00:50:09;;;;;;;12.07;7.88;;;;;;;10.88;82.71;100293.06;4996056;28;20228;-79
2024/03/15 00:52:37;;;;;;;11.57;7.63;;;;;;;10.91;82.55;100291.97;4981117;28;20113;-79
2024/03/15 00:55:04;;;;;;;11.93;8.60;;;;;;;10.81;83.38;100290.19;4976132;28;20103;-78
2024/03/15 00:57:31;;;;;;;12.23;8.65;;;;;;;10.78;83.54;100289.63;4975989;28;20054;-79
2024/03/15 00:59:57;;;;;;;11.25;8.90;;;;;;;10.73;83.63;100281.28;4972709;28;20081;-79
2024/03/15 01:02:24;;;;;;;10.73;8.02;;;;;;;10.76;83.32;100276.56;4976295;28;20050;-78
2024/03/15 01:04:51;;;;;;;12.27;8.45;;;;;;;10.74;83.53;100275.84;4986651;28;20125;-79
2024/03/15 01:07:17;;;;;;;11.48;7.93;;;;;;;10.79;83.29;100276.25;4987345;28;20120;-78
2024/03/15 01:09:44;;;;;;;12.68;8.60;;;;;;;10.88;83.31;100279.84;4974324;28;20053;-77
2024/03/15 01:12:11;;;;;;;14.10;8.75;;;;;;;10.90;82.79;100277.06;4983345;28;20460;-78
2024/03/15 01:14:37;;;;;;;11.70;8.45;;;;;;;10.92;82.87;100273.28;4976661;28;20129;-77
2024/03/15 01:17:04;;;;;;;11.40;8.25;;;;;;;10.94;83.10;100268.69;4981937;28;20130;-78
2024/03/15 01:19:32;;;;;;;16.10;7.78;;;;;;;10.94;82.88;100276.63;4983872;28;20125;-78
2024/03/15 01:22:00;;;;;;;10.82;8.48;;;;;;;10.98;83.01;100277.16;4980703;28;20092;-78
2024/03/15 01:24:28;;;;;;;13.02;8.73;;;;;;;11.02;82.89;100270.59;4980430;28;20559;-77
2024/03/15 01:26:54;;;;;;;12.80;7.88;;;;;;;11.03;82.73;100265.16;4981044;28;20085;-79
2024/03/15 01:29:22;;;;;;;10.75;7.72;;;;;;;11.11;82.60;100262.59;4984584;28;20453;-79
2024/03/15 01:31:49;;;;;;;10.05;8.32;;;;;;;11.06;82.81;100258.72;4962369;28;20054;-80
2024/03/15 01:34:16;;;;;;;10.35;7.75;;;;;;;11.06;82.96;100262.19;4987030;28;20470;-79
2024/03/15 01:36:42;;;;;;;11.00;8.45;;;;;;;11.05;83.04;100259.72;4981915;28;20124;-78
2024/03/15 01:39:09;;;;;;;10.80;7.53;;;;;;;11.05;83.38;100270.31;4975963;28;20050;-79
2024/03/15 01:41:36;;;;;;;11.32;7.65;;;;;;;11.03;83.30;100264.34;4973205;28;20597;-78
2024/03/15 01:44:02;;;;;;;13.35;8.20;;;;;;;10.89;83.87;100270.91;4968057;28;20137;-79
2024/03/15 01:46:29;;;;;;;10.68;7.85;;;;;;;10.78;84.56;100257.88;4979266;28;20081;-78
2024/03/15 01:48:56;;;;;;;10.90;7.80;;;;;;;10.74;85.18;100259.97;4982324;28;20106;-79
2024/03/15 01:51:26;;;;;;;11.18;7.88;;;;;;;10.79;84.70;100263.00;4990998;28;20475;-80
2024/03/15 01:53:53;;;;;;;10.63;8.10;;;;;;;10.70;85.07;100255.94;4971630;28;20065;-77
2024/03/15 01:56:21;;;;;;;11.73;7.72;;;;;;;10.63;85.26;100255.69;4979118;28;20057;-76
2024/03/15 01:58:47;;;;;;;13.35;8.68;;;;;;;10.60;85.48;100250.66;4974937;28;20054;-78
2024/03/15 02:01:14;;;;;;;15.75;8.10;;;;;;;10.60;85.01;100255.97;4969942;28;20142;-78
2024/03/15 02:03:41;;;;;;;11.82;8.68;;;;;;;10.61;85.06;100257.63;4979097;28;20105;-80
2024/03/15 02:06:08;;;;;;;12.52;8.07;;;;;;;10.69;84.71;100248.16;4981898;28;20129;-77
2024/03/15 02:08:35;;;;;;;9.80;7.68;;;;;;;10.61;85.06;100251.50;4988880;28;20125;-80
2024/03/15 02:11:02;;;;;;;11.88;8.32;;;;;;;10.57;85.11;100244.81;4973844;28;20046;-78
2024/03/15 02:13:29;;;;;;;12.75;8.02;;;;;;;10.61;85.08;100256.78;4977536;28;20113;-78
2024/03/15 02:15:55;;;;;;;12.05;8.00;;;;;;;10.56;85.13;100254.56;4975395;28;20085;-79
2024/03/15 02:18:22;;;;;;;14.02;7.97;;;;;;;10.71;84.68;100254.13;4991750;28;20137;-78
2024/03/15 02:20:49;;;;;;;11.18;8.27;;;;;;;10.68;84.75;100249.97;4975635;28;20050;-78
2024/03/15 02:23:19;;;;;;;11.55;8.23;;;;;;;10.70;84.66;100247.16;4982503;28;20126;-79
2024/03/15 02:25:46;;;;;;;13.45;7.97;;;;;;;10.65;84.93;100250.25;4981022;28;20046;-79
2024/03/15 02:28:14;;;;;;;9.80;7.80;;;;;;;10.68;84.74;100252.59;4982887;28;20563;-78
2024/03/15 02:30:40;;;;;;;12.02;7.63;;;;;;;10.61;84.92;100249.69;4972095;28;20076;-78
2024/03/15 02:33:07;;;;;;;13.68;8.63;;;;;;;10.63;84.91;100247.75;4970412;28;20129;-78
2024/03/15 02:35:34;;;;;;;11.93;8.35;;;;;;;10.51;85.76;100243.59;4977974;28;20053;-79
2024/03/15 02:38:01;;;;;;;11.68;7.82;;;;;;;10.52;85.85;100242.63;4975741;28;20141;-78
2024/03/15 02:40:28;;;;;;;10.98;7.88;;;;;;;10.48;86.09;100249.16;4979463;28;20050;-78
2024/03/15 02:42:54;;;;;;;9.75;8.07;;;;;;;10.51;85.67;100243.59;4975042;28;20055;-80
2024/03/15 02:45:22;;;;;;;12.55;7.85;;;;;;;10.58;85.73;100242.06;4962407;28;20102;-78
2024/03/15 02:47:48;;;;;;;9.50;7.35;;;;;;;10.61;85.36;100239.09;4975041;28;20112;-79
2024/03/15 02:50:15;;;;;;;12.60;8.60;;;;;;;10.63;85.38;100241.63;4980194;28;20141;-79
2024/03/15 02:52:43;;;;;;;10.00;7.88;;;;;;;10.66;85.13;100248.44;4975642;28;20114;-79
2024/03/15 02:55:10;;;;;;;14.95;8.40;;;;;;;10.65;85.50;100244.13;4986351;28;20053;-77
2024/03/15 02:57:37;;;;;;;9.75;7.90;;;;;;;10.66;85.19;100248.44;4987774;28;20050;-79
2024/03/15 03:00:04;;;;;;;11.52;8.05;;;;;;;10.63;84.95;100253.03;4983710;28;20129;-79
2024/03/15 03:02:31;;;;;;;11.18;8.77;;;;;;;10.58;85.18;100249.13;4983008;28;20077;-79
2024/03/15 03:04:57;;;;;;;12.38;8.13;;;;;;;10.52;85.65;100261.13;4971454;28;20085;-79
2024/03/15 03:07:24;;;;;;;10.13;8.07;;;;;;;10.55;85.80;100257.38;4970346;28;20172;-79
2024/03/15 03:09:51;;;;;;;14.40;8.55;;;;;;;10.53;85.60;100261.97;4976618;28;20050;-79
2024/03/15 03:12:18;;;;;;;10.52;8.10;;;;;;;10.50;85.78;100271.03;4983511;28;20141;-78
2024/03/15 03:14:45;;;;;;;11.10;8.13;;;;;;;10.51;85.87;100266.56;4976878;28;20077;-79
2024/03/15 03:17:13;;;;;;;10.60;7.97;;;;;;;10.44;85.99;100271.59;4980959;28;20416;-79
2024/03/15 03:19:40;;;;;;;12.18;7.97;;;;;;;10.41;86.08;100261.31;4978628;28;20064;-79
2024/03/15 03:22:07;;;;;;;13.65;8.60;;;;;;;10.44;86.28;100262.81;4968199;28;20453;-79
2024/03/15 03:24:33;;;;;;;13.25;8.75;;;;;;;10.40;86.18;100262.25;4987363;28;20050;-79
2024/03/15 03:27:00;;;;;;;10.05;8.43;;;;;;;10.40;86.07;100266.72;4984859;28;20069;-79
2024/03/15 03:29:28;;;;;;;11.77;8.50;;;;;;;10.42;86.22;100259.50;4990125;28;20083;-79
2024/03/15 03:31:55;;;;;;;12.48;8.95;;;;;;;10.36;86.23;100263.56;4983377;28;20054;-79
2024/03/15 03:34:22;;;;;;;13.18;8.07;;;;;;;10.37;86.35;100262.56;4979815;28;20077;-78
2024/03/15 03:36:49;;;;;;;12.13;7.72;;;;;;;10.34;86.26;100268.97;4992007;28;20083;-79
2024/03/15 03:39:17;;;;;;;11.35;7.82;;;;;;;10.38;86.46;100257.13;4981858;28;20053;-77
2024/03/15 03:41:44;;;;;;;10.80;7.40;;;;;;;10.35;86.58;100264.50;4985175;28;20081;-78
2024/03/15 03:44:11;;;;;;;10.88;7.95;;;;;;;10.36;86.61;100252.97;4996608;28;20108;-79
2024/03/15 03:46:40;;;;;;;9.90;7.22;;;;;;;10.29;86.25;100243.94;4989458;28;20488;-76
2024/03/15 03:49:11;;;;;;;12.18;7.45;;;;;;;10.29;86.35;100244.75;4979561;28;20088;-78
2024/03/15 03:51:39;;;;;;;9.63;7.07;;;;;;;10.28;86.70;100243.09;4981381;28;20053;-78
2024/03/15 03:54:07;;;;;;;10.38;7.30;;;;;;;10.31;86.54;100247.25;4993337;28;20071;-77
2024/03/15 03:56:34;;;;;;;8.82;7.05;;;;;;;10.38;86.66;100254.47;4982513;28;20046;-78
2024/03/15 03:59:00;;;;;;;10.98;7.32;;;;;;;10.42;86.15;100254.22;4993759;28;20374;-78
2024/03/15 04:01:27;;;;;;;8.82;6.50;;;;;;;10.40;86.63;100254.31;4995905;28;20104;-78
2024/03/15 04:03:54;;;;;;;9.13;6.47;;;;;;;10.45;86.15;100260.06;4980683;28;20420;-78
2024/03/15 04:06:20;;;;;;;13.07;7.45;;;;;;;10.50;85.58;100259.63;4989129;28;20112;-78
2024/03/15 04:08:46;;;;;;;11.00;6.75;;;;;;;10.43;85.89;100248.75;4989268;28;20045;-79
2024/03/15 04:11:13;;;;;;;8.57;6.13;;;;;;;10.55;85.37;100249.44;4977525;28;20129;-79
2024/03/15 04:13:40;;;;;;;9.32;6.22;;;;;;;10.60;85.16;100247.19;4999005;28;20133;-78
2024/03/15 04:16:07;;;;;;;10.73;6.57;;;;;;;10.64;84.89;100245.94;4982988;28;20132;-78
2024/03/15 04:18:34;;;;;;;10.57;6.38;;;;;;;10.58;85.43;100254.44;4971027;28;20054;-78
2024/03/15 04:21:01;;;;;;;11.45;7.35;;;;;;;10.46;85.73;100245.84;4977593;28;20053;-78
2024/03/15 04:23:27;;;;;;;11.93;9.07;;;;;;;10.43;85.86;100262.00;4979281;28;20077;-77
2024/03/15 04:25:54;;;;;;;11.00;6.22;;;;;;;10.52;85.84;100257.66;4985057;28;20076;-77
2024/03/15 04:28:21;;;;;;;9.27;6.35;;;;;;;10.54;85.64;100261.00;4980545;28;20081;-77
2024/03/15 04:30:48;;;;;;;8.90;6.20;;;;;;;10.58;85.32;100252.66;4985137;28;20060;-77
2024/03/15 04:33:15;;;;;;;10.40;6.40;;;;;;;10.57;85.03;100258.88;4981674;28;20061;-77
2024/03/15 04:35:41;;;;;;;8.43;6.13;;;;;;;10.65;84.63;100249.41;4976761;28;20081;-78
2024/03/15 04:38:08;;;;;;;10.10;5.88;;;;;;;10.70;84.35;100248.00;4969545;28;20126;-78
2024/03/15 04:40:35;;;;;;;10.38;5.80;;;;;;;10.73;84.51;100252.19;4975614;28;20049;-77
2024/03/15 04:43:02;;;;;;;10.60;6.90;;;;;;;10.73;84.43;100263.59;4991724;28;20515;-78
2024/03/15 04:45:29;;;;;;;8.85;5.60;;;;;;;10.78;83.97;100256.06;4981199;28;20466;-78
2024/03/15 04:47:56;;;;;;;9.80;5.57;;;;;;;10.83;83.69;100255.63;4980002;28;20152;-78
2024/03/15 04:50:23;;;;;;;8.82;5.70;;;;;;;10.93;83.28;100264.34;4974185;28;20146;-77
2024/03/15 04:52:50;;;;;;;8.57;5.30;;;;;;;11.00;82.71;100262.78;4984130;28;20085;-78
2024/03/15 04:55:18;;;;;;;9.50;5.28;;;;;;;11.07;82.28;100255.94;4984124;28;20049;-77
2024/03/15 04:57:45;;;;;;;7.63;5.60;;;;;;;11.02;82.43;100255.53;4977504;28;20488;-77
2024/03/15 05:00:18;;;;;;;6.85;5.03;;;;;;;11.12;82.32;100261.63;4972810;28;20480;-78
2024/03/15 05:02:45;;;;;;;10.13;7.03;;;;;;;11.19;81.84;100266.34;4973181;28;20129;-77
2024/03/15 05:05:13;;;;;;;9.00;5.63;;;;;;;11.29;81.24;100265.28;4973195;28;20552;-76
2024/03/15 05:07:40;;;;;;;11.45;6.45;;;;;;;11.30;80.97;100268.81;4975285;28;20133;-78
2024/03/15 05:10:14;;;;;;;9.40;5.88;;;;;;;11.33;81.28;100260.53;4988596;28;20180;-78
2024/03/15 05:12:41;;;;;;;7.85;5.63;;;;;;;11.39;80.41;100255.50;4992359;28;20104;-78
2024/03/15 05:15:10;;;;;;;9.95;5.15;;;;;;;11.44;80.52;100264.81;4971054;28;20139;-77
2024/03/15 05:17:37;;;;;;;8.40;5.10;;;;;;;11.40;80.48;100256.31;4969390;28;20054;-78
2024/03/15 05:20:04;;;;;;;10.77;5.20;;;;;;;11.41;80.82;100249.19;4978432;28;20089;-77
2024/03/15 05:22:31;;;;;;;10.63;8.02;;;;;;;11.38;80.50;100255.63;4976294;28;20136;-77
2024/03/15 05:25:00;;;;;;;9.02;6.57;;;;;;;11.35;80.32;100253.28;4971580;28;20053;-77
2024/03/15 05:27:26;;;;;;;15.25;8.32;;;;;;;11.44;80.02;100257.69;4978505;28;20042;-78
2024/03/15 05:29:54;;;;;;;8.98;6.22;;;;;;;11.45;80.00;100254.06;4974951;28;20080;-79
2024/03/15 05:32:20;;;;;;;10.32;5.45;;;;;;;11.45;80.10;100254.06;4978345;28;20081;-76
2024/03/15 05:34:47;;;;;;;9.65;6.90;;;;;;;11.45;80.05;100253.22;4973695;28;20402;-76
2024/03/15 05:37:14;;;;;;;14.07;7.30;;;;;;;11.45;79.92;100253.22;4968040;28;20620;-77
2024/03/15 05:39:41;;;;;;;9.75;7.55;;;;;;;11.43;80.22;100250.72;4987060;28;20460;-78
2024/03/15 05:42:07;;;;;;;9.80;6.22;;;;;;;11.38;80.05;100256.47;4958615;28;20047;-77
2024/03/15 05:44:34;;;;;;;9.15;5.93;;;;;;;11.50;79.69;100251.78;4964849;28;20141;-77
2024/03/15 05:50:08;;;;;;;11.63;5.78;;;;;;;11.43;80.10;100256.03;4958183;28;20377;-77
2024/03/15 05:52:35;;;;;;;14.50;6.50;;;;;;;11.39;80.33;100260.78;4944918;28;20078;-78
2024/03/15 05:55:03;;;;;;;8.30;5.50;;;;;;;11.44;80.02;100265.66;4951385;28;20049;-76
2024/03/15 05:57:30;;;;;;;12.00;7.75;;;;;;;11.44;79.84;100268.28;4951899;28;20085;-76
2024/03/15 05:59:58;;;;;;;11.93;5.85;;;;;;;11.43;80.04;100269.28;4951683;28;20055;-77
2024/03/15 06:02:24;;;;;;;12.75;7.57;;;;;;;11.45;79.91;100277.91;5008463;23;20041;-79
2024/03/15 06:04:52;;;;;;;12.90;7.57;;;;;;;11.44;80.02;100278.06;5040672;28;20049;-83
2024/03/15 06:07:19;;;;;;;13.25;10.70;;;;;;;11.53;79.92;100274.53;5034110;28;20049;-84
2024/03/15 06:09:45;;;;;;;8.23;5.53;;;;;;;11.53;79.54;100285.94;5027567;28;20068;-84
2024/03/15 06:12:12;;;;;;;9.32;5.18;;;;;;;11.66;79.33;100277.66;5026732;28;20145;-83
2024/03/15 06:14:39;;;;;;;8.45;5.10;;;;;;;11.61;79.71;100283.41;5015994;28;20046;-84
2024/03/15 06:17:07;;;;;;;6.70;5.25;;;;;;;11.60;79.59;100284.34;5016497;28;20050;-85
2024/03/15 06:19:33;;;;;;;11.30;5.88;;;;;;;11.60;79.49;100289.66;5013391;28;20097;-84
2024/03/15 06:22:00;;;;;;;9.38;5.00;;;;;;;11.68;79.43;100290.75;5013801;28;20081;-84
2024/03/15 06:24:27;;;;;;;10.48;5.40;;;;;;;11.70;79.41;100291.41;5015296;28;20045;-84
2024/03/15 06:26:54;;;;;;;9.80;6.00;;;;;;;11.81;78.84;100301.81;5024057;28;20049;-86
2024/03/15 06:29:23;;;;;;;8.23;4.90;;;;;;;11.88;78.88;100297.63;5028437;28;20400;-86
2024/03/15 06:31:50;;;;;;;6.55;4.40;;;;;;;11.93;78.61;100294.50;5025500;28;20053;-82
2024/03/15 06:34:22;;;;;;;8.00;4.75;;;;;;;11.95;78.64;100298.66;5016438;28;20058;-82
2024/03/15 06:36:53;;;;;;;6.73;4.80;;;;;;;11.99;78.99;100302.69;5024678;28;20049;-82
2024/03/15 06:39:24;;;;;;;7.13;4.88;;;;;;;12.01;78.88;100290.13;5012916;28;20050;-81
2024/03/15 06:41:53;;;;;;;10.88;5.22;;;;;;;12.11;78.08;100293.53;5017109;28;20050;-82
2024/03/15 06:44:23;;;;;;;8.68;4.70;;;;;;;12.25;77.64;100294.78;5031658;28;20088;-82
2024/03/15 06:47:15;;;;;;;6.45;4.90;;;;;;;12.46;77.13;100296.28;5026179;28;20080;-82
2024/03/15 06:49:44;;;;;;;8.32;4.93;;;;;;;12.74;75.94;100296.97;5034457;28;20034;-82
2024/03/15 06:54:56;;;;;;;9.52;5.22;;;;;;;12.62;76.31;100302.53;5025943;28;20174;-82
2024/03/15 06:57:23;;;;;;;9.85;4.88;;;;;;;12.71;76.24;100297.28;5023396;28;20397;-82
2024/03/15 06:59:50;;;;;;;10.27;4.80;;;;;;;12.49;76.57;100296.78;5010955;28;20082;-82
2024/03/15 07:02:16;;;;;;;7.72;4.85;;;;;;;12.60;76.66;100304.53;5006488;28;20105;-82
2024/03/15 07:04:44;;;;;;;8.85;4.82;;;;;;;12.52;76.85;100300.97;5004815;28;20069;-82
2024/03/15 07:07:13;;;;;;;11.07;5.50;;;;;;;12.51;76.78;100313.41;5004733;28;20046;-82
2024/03/15 07:09:40;;;;;;;7.72;5.00;;;;;;;12.52;77.34;100309.75;5009135;28;20050;-83
2024/03/15 07:12:08;;;;;;;7.35;4.97;;;;;;;12.61;76.84;100315.97;5007718;28;20053;-83
2024/03/15 07:14:34;;;;;;;9.63;5.43;;;;;;;12.74;76.50;100316.41;5008170;28;20519;-83
2024/03/15 07:17:01;;;;;;;9.35;5.10;;;;;;;12.73;76.06;100321.88;5008949;28;20074;-82
2024/03/15 07:19:28;;;;;;;7.68;5.35;;;;;;;12.81;76.12;100316.59;5009935;28;20093;-82
2024/03/15 07:21:55;;;;;;;7.57;5.13;;;;;;;12.97;75.35;100322.00;5008759;28;20054;-82
2024/03/15 07:24:22;;;;;;;9.90;5.25;;;;;;;13.04;75.37;100322.22;5006912;28;20054;-84
2024/03/15 07:26:49;;;;;;;10.82;5.40;;;;;;;13.05;74.61;100330.03;4998032;28;20424;-83
2024/03/15 07:29:16;;;;;;;7.35;5.38;;;;;;;12.83;77.73;100331.41;5004948;28;20054;-83
2024/03/15 07:31:42;;;;;;;11.15;5.30;;;;;;;12.61;80.15;100337.22;5005470;28;20050;-82
2024/03/15 07:34:10;;;;;;;10.23;5.78;;;;;;;12.47;81.26;100335.94;5005268;28;20054;-83
2024/03/15 07:36:38;;;;;;;9.45;5.40;;;;;;;12.32;81.76;100332.16;5005007;28;20100;-83
2024/03/15 07:39:06;;;;;;;10.98;5.80;;;;;;;12.37;82.90;100337.84;5005228;28;20240;-83
2024/03/15 07:41:34;;;;;;;11.73;6.03;;;;;;;12.34;83.46;100348.78;5002924;28;20702;-83
2024/03/15 07:44:01;;;;;;;11.68;6.00;;;;;;;12.33;83.91;100355.06;5001122;28;20128;-82
2024/03/15 07:46:27;;;;;;;11.35;5.75;;;;;;;12.31;83.61;100355.19;5006080;28;20077;-82
2024/03/15 07:48:54;;;;;;;8.93;5.68;;;;;;;12.35;84.27;100353.09;5005006;28;20129;-83
2024/03/15 07:51:23;;;;;;;9.95;6.13;;;;;;;12.38;84.97;100355.44;5005228;28;20381;-82
2024/03/15 07:53:50;;;;;;;9.50;5.60;;;;;;;12.51;84.92;100347.94;5007055;28;20045;-82
2024/03/15 07:56:19;;;;;;;8.13;5.47;;;;;;;12.56;85.28;100355.44;5005968;28;20050;-82
2024/03/15 07:58:45;;;;;;;7.72;5.38;;;;;;;12.67;85.09;100362.31;5013043;28;20046;-83
2024/03/15 08:01:13;;;;;;;9.32;6.20;;;;;;;12.56;85.21;100356.25;5008345;28;20076;-82
2024/03/15 08:03:41;;;;;;;9.77;5.60;;;;;;;12.52;85.62;100351.41;5002659;28;20076;-82
2024/03/15 08:06:09;;;;;;;10.40;5.47;;;;;;;12.61;85.22;100353.97;5003479;28;20080;-82
2024/03/15 08:08:36;;;;;;;7.72;5.57;;;;;;;12.75;84.43;100349.09;5001557;28;20046;-83
2024/03/15 08:11:03;;;;;;;13.02;5.60;;;;;;;12.82;84.95;100345.66;5002900;28;20046;-81
2024/03/15 08:13:30;;;;;;;9.45;5.57;;;;;;;12.83;83.75;100351.81;5000200;28;20088;-82
2024/03/15 08:15:59;;;;;;;10.10;6.05;;;;;;;12.79;84.20;100355.75;5003318;28;20075;-82
2024/03/15 08:18:26;;;;;;;8.45;5.70;;;;;;;12.80;84.21;100358.25;5002754;28;20483;-82
2024/03/15 08:20:53;;;;;;;11.55;5.47;;;;;;;12.85;83.42;100357.78;5002749;28;20110;-81
2024/03/15 08:23:23;;;;;;;10.05;5.80;;;;;;;12.90;83.14;100358.16;5001560;28;20057;-82
2024/03/15 08:25:49;;;;;;;8.55;5.40;;;;;;;12.98;83.89;100365.34;5001729;28;20065;-83
2024/03/15 08:28:16;;;;;;;10.40;5.25;;;;;;;12.92;84.01;100364.16;4999188;28;20088;-83
2024/03/15 08:30:43;;;;;;;8.63;5.53;;;;;;;13.18;82.36;100361.50;5000008;28;20081;-83
2024/03/15 08:33:10;;;;;;;11.18;7.07;;;;;;;13.36;81.80;100358.78;5002253;28;20045;-83
2024/03/15 08:35:41;;;;;;;11.52;5.68;;;;;;;13.43;81.02;100353.66;5006996;28;20161;-82
2024/03/15 08:38:08;;;;;;;10.45;5.28;;;;;;;13.60;80.04;100358.88;5005138;28;20050;-82
2024/03/15 08:40:34;;;;;;;8.70;5.03;;;;;;;13.55;80.60;100355.88;5006555;28;20081;-83
2024/03/15 08:43:01;;;;;;;8.45;5.40;;;;;;;13.57;80.72;100358.38;5002063;28;20113;-82
2024/03/15 08:45:29;;;;;;;9.75;5.55;;;;;;;13.63;80.48;100363.06;5003078;28;20123;-83
2024/03/15 08:47:57;;;;;;;9.40;5.43;;;;;;;13.46;80.45;100362.16;4981290;28;20516;-82
2024/03/15 08:50:26;;;;;;;8.48;5.38;;;;;;;13.67;79.37;100356.44;5003035;28;20050;-83
2024/03/15 08:52:53;;;;;;;7.30;5.63;;;;;;;13.84;79.49;100359.97;4994764;28;20413;-80
2024/03/15 08:55:21;;;;;;;9.98;5.47;;;;;;;14.03;78.40;100357.03;4993182;28;20073;-83
2024/03/15 08:57:47;;;;;;;8.70;5.35;;;;;;;14.24;77.55;100366.38;5003590;28;20046;-82
2024/03/15 09:00:17;;;;;;;6.93;5.57;;;;;;;14.30;77.09;100360.41;5005874;28;20041;-81
2024/03/15 09:02:55;;;;;;;7.43;5.47;;;;;;;14.20;77.39;100367.69;5006399;28;20053;-81
2024/03/15 09:05:22;;;;;;;9.55;6.13;;;;;;;14.39;76.51;100359.41;5010678;28;20056;-80
2024/03/15 09:07:58;;;;;;;7.50;5.35;;;;;;;14.31;76.72;100370.88;5011044;28;20140;-81
2024/03/15 09:10:25;;;;;;;6.55;4.88;;;;;;;14.27;76.07;100360.72;5009825;28;20088;-81
2024/03/15 09:12:52;;;;;;;7.50;5.53;;;;;;;14.51;76.13;100355.47;5003094;28;20483;-81
2024/03/15 09:15:22;;;;;;;8.77;5.47;;;;;;;14.64;75.74;100354.94;5001919;28;20077;-81
2024/03/15 09:17:50;;;;;;;9.90;5.47;;;;;;;14.96;75.41;100359.41;5000977;28;20045;-81
2024/03/15 09:20:19;;;;;;;9.52;5.32;;;;;;;15.00;74.50;100354.56;5004543;28;20053;-81
2024/03/15 09:22:50;;;;;;;8.35;5.00;;;;;;;15.36;73.33;100357.66;5004725;28;20055;-81
2024/03/15 09:25:20;;;;;;;7.00;4.90;;;;;;;15.36;71.66;100357.66;5004037;28;20523;-81
2024/03/15 09:27:48;;;;;;;8.88;5.55;;;;;;;15.67;72.12;100363.06;5005216;28;20050;-82
2024/03/15 09:30:20;;;;;;;7.88;4.80;;;;;;;15.56;72.25;100361.56;5002019;28;20046;-82
2024/03/15 09:32:48;;;;;;;7.22;4.68;;;;;;;15.62;71.71;100352.84;5006956;28;20054;-82
2024/03/15 09:35:15;;;;;;;9.50;4.60;;;;;;;15.54;71.15;100344.91;5004983;28;20081;-81
2024/03/15 09:37:46;;;;;;;5.45;4.05;;;;;;;15.48;71.66;100350.91;5004187;28;20077;-83
2024/03/15 09:40:16;;;;;;;7.95;4.60;;;;;;;15.58;71.90;100354.22;5006220;28;20046;-83
2024/03/15 09:42:42;;;;;;;5.25;3.90;;;;;;;15.60;71.73;100356.72;5005750;28;20049;-83
2024/03/15 09:45:10;;;;;;;7.28;4.00;;;;;;;15.49;70.54;100360.59;5005790;28;20170;-82
2024/03/15 09:47:37;;;;;;;6.57;3.90;;;;;;;15.47;70.56;100353.78;5007522;28;20168;-82
2024/03/15 09:50:11;;;;;;;7.07;3.83;;;;;;;15.37;71.76;100353.97;5002898;28;20054;-82
2024/03/15 09:52:38;;;;;;;6.70;3.90;;;;;;;15.39;71.33;100352.78;5007483;28;20046;-82
2024/03/15 09:55:05;;;;;;;5.63;3.40;;;;;;;15.45;71.96;100353.94;5004388;28;20152;-83
2024/03/15 09:57:32;;;;;;;4.60;3.40;;;;;;;15.51;71.02;100357.75;5012020;28;20109;-82
2024/03/15 09:59:59;;;;;;;6.20;3.65;;;;;;;15.44;70.23;100349.59;5014841;28;20065;-82
2024/03/15 10:02:26;;;;;;;7.68;4.25;;;;;;;15.35;70.52;100347.97;5015460;28;20049;-81
2024/03/15 10:04:53;;;;;;;4.15;3.28;;;;;;;15.45;70.07;100348.63;5009296;28;20138;-82
2024/03/15 10:07:20;;;;;;;3.85;3.05;;;;;;;15.64;69.96;100353.56;5004700;28;20535;-82
2024/03/15 10:09:48;;;;;;;3.75;3.17;;;;;;;15.87;69.39;100355.44;5004922;28;20038;-82
2024/03/15 10:12:15;;;;;;;6.53;3.53;;;;;;;16.22;68.05;100345.22;5003244;28;20051;-82
2024/03/15 10:14:42;;;;;;;7.10;3.47;;;;;;;16.32;67.40;100351.16;5005335;28;20050;-82
2024/03/15 10:17:10;;;;;;;4.60;3.05;;;;;;;16.39;67.64;100358.28;5013621;28;20030;-82
2024/03/15 10:19:36;;;;;;;4.18;3.25;;;;;;;16.14;67.92;100354.94;5016800;28;20038;-83
2024/03/15 10:22:03;;;;;;;3.10;2.67;;;;;;;16.15;67.40;100348.59;5008701;28;20056;-82
2024/03/15 10:24:30;;;;;;;3.30;3.00;;;;;;;16.03;67.38;100349.16;5002725;28;20053;-82
2024/03/15 10:26:56;;;;;;;3.45;2.55;;;;;;;16.23;66.57;100352.22;5003351;28;20053;-81
2024/03/15 10:29:23;;;;;;;4.38;2.70;;;;;;;16.29;65.83;100363.00;5003884;28;20611;-82
2024/03/15 10:31:53;;;;;;;3.03;2.70;;;;;;;16.04;66.82;100353.53;5003054;28;20081;-82
2024/03/15 10:34:20;;;;;;;3.10;2.33;;;;;;;16.03;66.92;100360.69;5003839;28;20054;-82
2024/03/15 10:36:46;;;;;;;5.03;2.50;;;;;;;16.00;66.08;100358.38;5006458;28;20050;-81
2024/03/15 10:39:13;;;;;;;2.90;2.35;;;;;;;16.15;65.49;100361.09;5006257;28;20432;-82
2024/03/15 10:41:40;;;;;;;5.85;2.53;;;;;;;16.18;65.71;100361.59;5007104;28;20045;-82
2024/03/15 10:44:07;;;;;;;3.28;2.50;;;;;;;15.95;65.72;100363.41;5003339;28;20133;-82
2024/03/15 10:46:34;;;;;;;4.82;2.60;;;;;;;16.24;65.35;100364.56;5005514;28;20065;-82
2024/03/15 10:49:01;;;;;;;4.75;2.80;;;;;;;16.36;65.18;100360.47;5005491;28;20065;-82
2024/03/15 10:51:30;;;;;;;4.20;2.40;;;;;;;16.60;64.62;100354.91;5004770;28;20427;-82
2024/03/15 10:53:57;;;;;;;5.03;2.70;;;;;;;16.62;63.29;100352.91;5005546;28;20050;-82
2024/03/15 10:56:24;;;;;;;5.05;2.67;;;;;;;16.68;63.40;100348.69;5006090;28;20050;-82
2024/03/15 10:58:51;;;;;;;3.80;2.63;;;;;;;16.84;62.42;100355.75;5004955;28;20116;-82
2024/03/15 11:01:18;;;;;;;3.22;2.40;;;;;;;17.03;61.30;100355.22;5005561;28;20069;-83
2024/03/15 11:03:46;;;;;;;5.25;2.38;;;;;;;16.93;61.11;100349.31;5005016;28;20183;-81
2024/03/15 11:06:13;;;;;;;3.42;2.50;;;;;;;16.90;61.19;100347.00;5001585;28;20383;-83
2024/03/15 11:08:42;;;;;;;3.25;2.45;;;;;;;16.60;62.15;100348.75;5005797;28;20085;-82
2024/03/15 11:11:10;;;;;;;6.28;2.85;;;;;;;16.20;61.96;100341.88;5006265;28;20069;-82
2024/03/15 11:13:37;;;;;;;5.75;2.75;;;;;;;15.69;66.07;100371.72;5005270;28;20080;-82
2024/03/15 11:16:17;;;;;;;7.72;3.13;;;;;;;14.92;73.34;100376.75;5005878;28;20077;-83
2024/03/15 11:18:46;;;;;;;3.97;2.72;;;;;;;14.31;75.22;100392.16;5004275;28;20155;-82
2024/03/15 11:21:23;;;;;;;4.95;2.65;;;;;;;14.06;77.88;100398.44;5002044;28;20043;-83
2024/03/15 11:23:50;;;;;;;3.42;2.47;;;;;;;13.73;79.23;100403.66;4989185;28;20050;-84
2024/03/15 11:26:20;;;;;;;3.08;2.60;;;;;;;13.51;80.54;100391.75;5005274;28;20100;-83
2024/03/15 11:28:46;;;;;;;4.45;2.75;;;;;;;13.44;80.71;100393.41;5013405;28;20104;-83